Time;durP1;ratioP1;P1;durP2;ratioP2;P2;SDS_P1;SDS_P2;PMS_P1;PMS_P2;Temp;Humidity;BMP_temperature;BMP_pressure;BME280_temperature;BME280_humidity;BME280_pressure;Samples;Min_cycle;Max_cycle;Signal;HPM_P1;HPM_P2
2022/10/25 00:03:15;;;;;;;11.17;7.50;;;12.80;99.90;;;;;;10040060;29;20312;-84
2022/10/25 00:08:17;;;;;;;13.70;7.83;;;12.60;99.90;;;;;;10054670;29;20307;-84
2022/10/25 00:13:20;;;;;;;12.23;7.57;;;13.20;99.90;;;;;;10053985;29;20281;-84
2022/10/25 00:18:22;;;;;;;10.90;7.30;;;12.70;99.90;;;;;;10055915;29;20247;-84
2022/10/25 00:23:25;;;;;;;10.10;6.87;;;12.50;99.90;;;;;;10037860;29;20295;-84
2022/10/25 00:28:27;;;;;;;17.10;7.70;;;12.30;99.90;;;;;;10055278;29;20263;-84
2022/10/25 00:33:31;;;;;;;15.37;7.30;;;12.40;99.90;;;;;;10038232;29;20233;-84
2022/10/25 00:38:34;;;;;;;11.57;8.43;;;12.30;99.90;;;;;;10022973;29;20214;-84
2022/10/25 00:43:46;;;;;;;10.27;7.80;;;12.90;99.90;;;;;;10054755;29;20301;-84
2022/10/25 00:49:11;;;;;;;10.20;6.13;;;12.70;99.90;;;;;;10053530;29;20231;-84
2022/10/25 00:54:19;;;;;;;11.13;7.33;;;12.40;99.90;;;;;;10037789;29;20265;-84
2022/10/25 00:59:25;;;;;;;13.37;7.90;;;12.20;99.90;;;;;;10054413;29;20249;-84
2022/10/25 01:04:29;;;;;;;12.43;7.00;;;12.10;99.90;;;;;;10053338;29;20258;-84
2022/10/25 01:09:34;;;;;;;10.90;7.33;;;12.00;99.90;;;;;;10053055;29;20237;-84
2022/10/25 01:14:41;;;;;;;13.07;7.63;;;12.10;99.90;;;;;;10036567;29;20326;-84
2022/10/25 01:20:21;;;;;;;9.63;7.40;;;12.20;99.90;;;;;;10052867;29;20318;-84
2022/10/25 01:25:37;;;;;;;20.60;9.03;;;12.20;99.90;;;;;;10053379;29;20610;-84
2022/10/25 01:30:52;;;;;;;15.23;8.23;;;12.10;99.90;;;;;;10076664;29;20232;-84
2022/10/25 01:36:05;;;;;;;21.77;11.90;;;12.00;99.90;;;;;;10021455;29;20229;-84
2022/10/25 01:41:26;;;;;;;25.10;14.17;;;12.00;99.90;;;;;;10053092;29;20275;-84
2022/10/25 01:46:39;;;;;;;23.73;14.00;;;11.90;99.90;;;;;;10052175;29;20307;-84
2022/10/25 01:51:41;;;;;;;19.87;12.30;;;11.80;99.90;;;;;;10053360;29;20256;-84
2022/10/25 01:57:11;;;;;;;21.53;12.67;;;11.80;99.90;;;;;;10049880;29;20322;-84
2022/10/25 02:02:37;;;;;;;15.93;9.60;;;11.70;99.90;;;;;;10029769;29;20241;-84
2022/10/25 02:08:11;;;;;;;16.67;9.37;;;11.50;99.90;;;;;;10052639;29;20227;-84
2022/10/25 02:13:27;;;;;;;10.97;8.43;;;11.40;99.90;;;;;;10026319;29;20710;-84
2022/10/25 02:18:34;;;;;;;15.20;8.63;;;11.40;99.90;;;;;;10021943;29;20292;-84
2022/10/25 02:23:38;;;;;;;11.37;7.30;;;11.40;99.90;;;;;;10052688;29;20246;-84
2022/10/25 02:28:41;;;;;;;13.50;8.10;;;11.10;99.90;;;;;;10051838;29;20289;-84
2022/10/25 02:33:45;;;;;;;10.57;7.40;;;11.20;99.90;;;;;;10036174;29;20218;-84
2022/10/25 02:38:50;;;;;;;14.70;8.70;;;11.30;99.90;;;;;;10034969;29;20249;-84
2022/10/25 02:43:52;;;;;;;12.87;8.70;;;11.50;99.90;;;;;;10035105;29;20318;-84
2022/10/25 02:48:55;;;;;;;12.60;8.00;;;11.70;99.90;;;;;;10037047;29;20261;-84
2022/10/25 02:53:57;;;;;;;13.23;8.17;;;11.60;99.90;;;;;;10042557;29;20273;-84
2022/10/25 02:59:00;;;;;;;11.93;7.33;;;11.50;99.90;;;;;;10043061;29;20238;-84
2022/10/25 03:04:02;;;;;;;17.03;7.63;;;11.50;99.90;;;;;;10057842;29;20282;-84
2022/10/25 03:09:05;;;;;;;14.57;7.40;;;11.30;99.90;;;;;;10042056;29;20693;-84
2022/10/25 03:14:07;;;;;;;15.47;8.07;;;11.10;99.90;;;;;;10041393;29;20284;-84
2022/10/25 03:19:10;;;;;;;10.63;7.53;;;11.10;99.90;;;;;;10058097;29;20302;-84
2022/10/25 03:24:12;;;;;;;11.33;8.30;;;11.10;99.90;;;;;;10057723;29;20257;-84
2022/10/25 03:29:15;;;;;;;11.43;8.43;;;11.10;99.90;;;;;;10057912;29;20262;-84
2022/10/25 03:34:17;;;;;;;18.50;7.90;;;11.10;99.90;;;;;;10055730;29;20246;-84
2022/10/25 03:39:20;;;;;;;13.70;8.27;;;11.10;99.90;;;;;;10056489;29;20237;-84
2022/10/25 03:44:22;;;;;;;13.73;7.93;;;11.30;99.90;;;;;;10057247;29;20308;-84
2022/10/25 03:49:25;;;;;;;13.57;7.77;;;11.50;99.90;;;;;;10039856;29;20238;-84
2022/10/25 03:54:27;;;;;;;14.20;8.53;;;11.40;99.90;;;;;;10056855;29;20278;-84
2022/10/25 03:59:30;;;;;;;13.07;7.73;;;11.30;99.90;;;;;;10057099;29;20244;-84
2022/10/25 04:04:33;;;;;;;15.53;9.30;;;11.30;99.90;;;;;;10054149;29;20261;-84
2022/10/25 04:09:35;;;;;;;14.80;8.03;;;11.70;99.90;;;;;;10056072;29;20245;-84
2022/10/25 04:14:38;;;;;;;13.37;8.87;;;11.70;99.90;;;;;;10040191;29;20776;-84
2022/10/25 04:19:40;;;;;;;11.50;8.00;;;12.30;99.90;;;;;;10020401;29;20303;-84
2022/10/25 04:24:43;;;;;;;14.93;7.80;;;12.10;99.90;;;;;;10033122;29;20321;-83
2022/10/25 04:29:45;;;;;;;9.87;8.23;;;12.10;99.90;;;;;;10038318;29;20683;-83
2022/10/25 04:34:47;;;;;;;11.80;6.83;;;12.10;99.90;;;;;;10052929;29;20654;-83
2022/10/25 04:39:50;;;;;;;12.93;8.43;;;12.20;99.90;;;;;;10041869;29;20256;-83
2022/10/25 04:44:52;;;;;;;10.97;7.27;;;13.80;99.90;;;;;;10054097;29;20260;-83
2022/10/25 04:49:55;;;;;;;9.20;7.13;;;12.70;99.90;;;;;;10038532;29;20236;-82
2022/10/25 04:54:57;;;;;;;10.70;8.03;;;12.80;99.90;;;;;;10036407;29;20275;-83
2022/10/25 05:00:00;;;;;;;13.67;8.37;;;12.70;99.90;;;;;;10053333;29;20234;-82
2022/10/25 05:05:02;;;;;;;12.17;8.13;;;12.70;99.90;;;;;;10037289;29;20259;-82
2022/10/25 05:10:05;;;;;;;16.53;8.87;;;12.80;99.90;;;;;;10053703;29;20249;-83
2022/10/25 05:15:08;;;;;;;17.13;8.37;;;12.80;99.90;;;;;;10050266;29;20255;-82
2022/10/25 05:20:11;;;;;;;11.43;7.30;;;12.60;99.90;;;;;;10053259;29;20632;-82
2022/10/25 05:25:14;;;;;;;13.87;8.83;;;12.50;99.90;;;;;;10035905;29;20286;-82
2022/10/25 05:30:17;;;;;;;15.17;7.63;;;12.60;99.90;;;;;;10051633;29;20233;-82
2022/10/25 05:35:19;;;;;;;11.77;8.47;;;13.10;99.90;;;;;;10052768;29;20240;-83
2022/10/25 05:40:21;;;;;;;15.70;8.63;;;12.70;99.90;;;;;;10052641;29;20242;-83
2022/10/25 05:45:24;;;;;;;13.53;8.57;;;12.80;99.90;;;;;;10053340;29;20444;-82
2022/10/25 05:50:27;;;;;;;14.60;10.03;;;13.00;99.90;;;;;;10053176;29;20268;-82
2022/10/25 05:55:29;;;;;;;9.23;8.17;;;13.80;99.90;;;;;;10052386;29;20742;-83
2022/10/25 06:00:32;;;;;;;15.43;8.00;;;14.20;99.90;;;;;;10052438;29;20699;-83
2022/10/25 06:05:34;;;;;;;12.83;8.47;;;13.70;99.90;;;;;;10036346;29;20290;-83
2022/10/25 06:10:37;;;;;;;9.83;8.00;;;13.50;99.90;;;;;;10035966;29;20293;-83
2022/10/25 06:15:39;;;;;;;8.97;7.20;;;14.40;99.90;;;;;;10035942;29;20240;-83
2022/10/25 06:20:42;;;;;;;16.07;8.07;;;13.80;99.90;;;;;;10052905;29;20285;-83
2022/10/25 06:25:44;;;;;;;27.10;10.57;;;14.00;99.90;;;;;;10029349;29;20296;-83
2022/10/25 06:30:47;;;;;;;15.23;10.37;;;12.80;99.90;;;;;;10056566;29;20234;-83
2022/10/25 06:35:54;;;;;;;15.30;10.13;;;12.70;99.90;;;;;;10059582;29;20247;-82
2022/10/25 06:40:59;;;;;;;17.67;10.10;;;12.80;99.90;;;;;;10058997;29;20213;-83
2022/10/25 06:46:05;;;;;;;15.50;9.20;;;12.90;99.90;;;;;;10008150;29;20265;-83
2022/10/25 06:51:11;;;;;;;15.60;8.60;;;12.90;99.90;;;;;;10058813;29;20702;-83
2022/10/25 06:56:13;;;;;;;13.27;10.50;;;13.70;99.90;;;;;;10041319;29;20340;-82
2022/10/25 07:01:18;;;;;;;16.83;8.83;;;14.50;99.90;;;;;;10056715;29;20245;-82
2022/10/25 07:06:34;;;;;;;10.10;7.60;;;14.20;99.90;;;;;;10058119;29;20380;-82
2022/10/25 07:11:38;;;;;;;19.50;7.53;;;14.10;99.90;;;;;;10040859;29;20245;-82
2022/10/25 07:16:40;;;;;;;12.13;9.37;;;14.20;99.90;;;;;;10041079;29;20634;-86
2022/10/25 07:21:44;;;;;;;12.60;8.60;;;15.00;99.90;;;;;;10053765;29;20245;-82
2022/10/25 07:26:46;;;;;;;9.80;8.10;;;15.60;99.90;;;;;;10054326;29;20652;-82
2022/10/25 07:31:49;;;;;;;9.57;7.40;;;15.90;99.90;;;;;;10039919;29;20245;-81
2022/10/25 07:36:51;;;;;;;12.57;6.83;;;16.60;99.90;;;;;;10056930;29;20938;-82
2022/10/25 07:41:54;;;;;;;10.73;6.67;;;16.60;99.90;;;;;;10055591;29;20245;-82
2022/10/25 07:46:57;;;;;;;10.03;7.87;;;16.50;99.90;;;;;;10056357;29;20269;-84
2022/10/25 07:52:00;;;;;;;11.17;7.30;;;;;;;;;;10055138;29;20323;-82
2022/10/25 07:57:02;;;;;;;12.17;6.77;;;16.90;99.90;;;;;;10054953;29;20674;-82
2022/10/25 08:02:10;;;;;;;9.57;6.93;;;17.30;99.90;;;;;;10053683;29;20207;-83
2022/10/25 08:07:13;;;;;;;10.00;7.97;;;17.00;99.90;;;;;;10052820;29;20263;-82
2022/10/25 08:12:15;;;;;;;13.40;5.70;;;17.20;99.90;;;;;;10050195;29;20250;-84
2022/10/25 08:17:23;;;;;;;13.87;7.80;;;15.60;99.90;;;;;;10040100;29;20249;-82
2022/10/25 08:22:26;;;;;;;13.37;7.53;;;17.00;99.90;;;;;;10054654;29;20823;-83
2022/10/25 08:27:28;;;;;;;8.53;5.93;;;16.80;99.90;;;;;;10053057;29;20731;-83
2022/10/25 08:32:30;;;;;;;11.40;7.07;;;16.10;99.90;;;;;;10052799;29;20274;-83
2022/10/25 08:37:33;;;;;;;10.03;6.70;;;16.10;99.90;;;;;;10035985;29;20306;-82
2022/10/25 08:42:47;;;;;;;10.23;7.63;;;15.20;99.90;;;;;;10027414;29;20237;-83
2022/10/25 08:47:54;;;;;;;10.80;7.53;;;15.70;99.90;;;;;;10051512;29;20313;-83
2022/10/25 08:53:00;;;;;;;18.07;8.57;;;14.80;99.90;;;;;;10050986;29;20305;-83
2022/10/25 08:58:07;;;;;;;9.33;7.53;;;15.20;99.90;;;;;;10052337;29;20659;-82
2022/10/25 09:03:16;;;;;;;10.30;7.53;;;15.40;99.90;;;;;;10036900;29;20265;-82
2022/10/25 09:08:40;;;;;;;10.97;9.07;;;15.50;99.90;;;;;;10052320;29;20289;-82
2022/10/25 09:14:08;;;;;;;11.50;6.20;;;16.20;99.90;;;;;;10036971;29;20262;-83
2022/10/25 09:19:28;;;;;;;11.03;6.80;;;15.70;99.90;;;;;;10052461;29;20620;-83
2022/10/25 09:24:42;;;;;;;11.13;6.47;;;15.60;99.90;;;;;;10052877;29;20773;-83
2022/10/25 09:30:00;;;;;;;12.00;8.13;;;16.00;99.90;;;;;;10051036;29;20262;-82
2022/10/25 09:35:15;;;;;;;8.77;7.47;;;16.70;99.90;;;;;;10036125;29;20308;-82
2022/10/25 09:40:26;;;;;;;9.47;7.90;;;16.90;99.90;;;;;;10035330;29;20271;-83
2022/10/25 09:45:43;;;;;;;8.87;7.63;;;16.70;99.90;;;;;;10052881;29;20274;-83
2022/10/25 09:50:48;;;;;;;13.17;4.47;;;17.20;99.90;;;;;;10051165;29;20233;-84
2022/10/25 09:55:56;;;;;;;10.93;5.33;;;16.20;99.90;;;;;;10051521;29;20720;-82
2022/10/25 10:01:04;;;;;;;12.23;3.73;;;16.20;99.90;;;;;;10047947;29;21080;-83
2022/10/25 10:06:15;;;;;;;11.23;3.63;;;16.60;99.90;;;;;;10047892;29;20658;-83
2022/10/25 10:11:19;;;;;;;7.90;3.90;;;16.20;99.90;;;;;;10047667;29;20646;-82
2022/10/25 10:16:41;;;;;;;7.73;4.00;;;15.60;99.90;;;;;;10036752;29;20680;-82
2022/10/25 10:22:09;;;;;;;11.13;4.23;;;15.90;99.90;;;;;;10034275;29;20293;-83
2022/10/25 10:27:21;;;;;;;7.77;5.47;;;15.80;99.90;;;;;;9713148;29;9999746;-82
2022/10/25 10:32:35;;;;;;;8.30;4.53;;;15.80;99.90;;;;;;10045128;29;20702;-82
2022/10/25 10:37:37;;;;;;;8.47;7.20;;;15.70;99.90;;;;;;10033478;29;20650;-82
2022/10/25 10:42:41;;;;;;;11.70;5.53;;;16.40;99.90;;;;;;10048384;29;20305;-83
2022/10/25 10:47:50;;;;;;;6.07;4.13;;;16.50;99.90;;;;;;10031889;29;20329;-83
2022/10/25 10:52:52;;;;;;;5.60;5.03;;;16.10;99.90;;;;;;10031880;29;20249;-83
2022/10/25 10:58:21;;;;;;;8.40;4.63;;;16.90;99.90;;;;;;10022609;29;20246;-83
2022/10/25 11:03:34;;;;;;;9.20;7.00;;;16.70;99.90;;;;;;10043925;29;20249;-82
2022/10/25 11:08:36;;;;;;;6.90;4.17;;;16.90;99.90;;;;;;10045543;29;20896;-81
2022/10/25 11:13:39;;;;;;;9.43;7.37;;;16.70;99.90;;;;;;10037083;29;20258;-82
2022/10/25 11:18:52;;;;;;;13.00;4.37;;;16.90;99.90;;;;;;10034542;29;20322;-82
2022/10/25 11:24:01;;;;;;;10.00;5.60;;;17.20;99.90;;;;;;10050928;29;20630;-81
2022/10/25 11:29:28;;;;;;;7.57;6.13;;;17.50;99.90;;;;;;10045544;29;20260;-82
2022/10/25 11:34:57;;;;;;;6.73;4.63;;;17.30;99.90;;;;;;10055165;29;20237;-82
2022/10/25 11:40:19;;;;;;;8.73;4.40;;;17.60;99.90;;;;;;10047574;29;20233;-82
2022/10/25 11:45:21;;;;;;;8.43;3.33;;;17.50;99.90;;;;;;10025670;29;20678;-82
2022/10/25 11:50:48;;;;;;;6.13;4.40;;;17.10;99.90;;;;;;10049887;29;20262;-83
2022/10/25 11:56:05;;;;;;;7.50;5.67;;;16.50;99.90;;;;;;10031065;29;20265;-82
2022/10/25 12:01:31;;;;;;;8.17;4.50;;;17.20;99.90;;;;;;10052365;29;20641;-82
2022/10/25 12:06:42;;;;;;;7.40;5.33;;;;;;;;;;10035622;29;20826;-82
2022/10/25 12:11:54;;;;;;;8.70;6.93;;;17.90;99.90;;;;;;10037547;29;20565;-82
2022/10/25 12:17:00;;;;;;;11.57;4.23;;;17.80;99.90;;;;;;10028895;29;20297;-82
2022/10/25 12:22:12;;;;;;;4.07;2.30;;;17.40;99.90;;;;;;10054557;29;20241;-81
2022/10/25 12:27:21;;;;;;;7.17;5.97;;;17.40;99.90;;;;;;10054279;29;20292;-81
2022/10/25 12:32:56;;;;;;;6.60;3.73;;;17.40;99.90;;;;;;10053396;29;20623;-80
2022/10/25 12:38:06;;;;;;;7.33;5.37;;;17.40;99.90;;;;;;9699557;29;10000307;-82
2022/10/25 12:43:39;;;;;;;7.03;5.70;;;17.70;99.90;;;;;;10051244;29;20229;-82
2022/10/25 12:49:12;;;;;;;7.43;6.43;;;17.60;99.90;;;;;;10048713;29;20737;-82
2022/10/25 12:54:35;;;;;;;6.07;4.77;;;17.90;99.90;;;;;;10048628;29;20269;-82
2022/10/25 12:59:37;;;;;;;12.80;5.20;;;17.40;99.90;;;;;;10050609;29;20238;-82
2022/10/25 13:05:16;;;;;;;11.53;4.93;;;17.40;99.90;;;;;;10049691;29;20293;-81
2022/10/25 13:10:21;;;;;;;6.40;4.77;;;17.10;99.90;;;;;;10048261;29;20640;-81
2022/10/25 13:15:23;;;;;;;6.07;2.73;;;17.60;99.90;;;;;;10014054;29;20285;-81
2022/10/25 13:20:35;;;;;;;6.83;5.17;;;16.60;99.90;;;;;;10049513;29;20309;-82
2022/10/25 13:25:46;;;;;;;4.43;2.20;;;17.20;99.90;;;;;;10023472;29;20253;-82
2022/10/25 13:30:48;;;;;;;3.87;3.47;;;16.70;99.90;;;;;;10007077;29;20221;-82
2022/10/25 13:35:51;;;;;;;6.43;4.30;;;17.30;99.90;;;;;;10035832;29;20269;-83
2022/10/25 13:41:15;;;;;;;4.37;1.70;;;17.50;99.90;;;;;;10052536;29;20236;-83
2022/10/25 13:46:22;;;;;;;4.20;2.03;;;17.20;99.90;;;;;;10034214;29;20726;-82
2022/10/25 13:51:24;;;;;;;10.37;2.03;;;17.00;99.90;;;;;;10050809;29;20623;-82
2022/10/25 13:56:27;;;;;;;4.40;3.53;;;16.70;99.90;;;;;;10010778;29;20270;-82
2022/10/25 14:01:30;;;;;;;8.57;6.63;;;16.90;99.90;;;;;;10012689;29;20238;-82
2022/10/25 14:06:40;;;;;;;5.13;3.57;;;17.10;99.90;;;;;;10013256;29;20246;-82
2022/10/25 14:12:01;;;;;;;6.97;5.63;;;17.40;99.90;;;;;;10010754;29;20241;-81
2022/10/25 14:17:17;;;;;;;6.87;2.80;;;17.50;99.90;;;;;;10026743;29;20986;-81
2022/10/25 14:22:33;;;;;;;10.13;5.67;;;17.10;99.90;;;;;;9997171;29;20293;-82
2022/10/25 14:27:36;;;;;;;6.93;5.60;;;16.70;99.90;;;;;;10012779;29;20329;-82
2022/10/25 14:32:46;;;;;;;5.17;4.67;;;16.50;99.90;;;;;;10026300;29;20293;-81
2022/10/25 14:37:49;;;;;;;5.67;3.67;;;16.50;99.90;;;;;;10012627;29;20238;-82
2022/10/25 14:43:19;;;;;;;5.93;5.23;;;16.80;99.90;;;;;;10010574;29;20267;-82
2022/10/25 14:48:22;;;;;;;9.33;4.30;;;16.80;99.90;;;;;;10017811;29;20293;-82
2022/10/25 14:53:27;;;;;;;5.43;4.63;;;16.20;99.90;;;;;;10023239;29;20329;-82
2022/10/25 14:58:41;;;;;;;7.87;3.20;;;16.10;99.90;;;;;;10056500;29;20238;-82
2022/10/25 15:03:45;;;;;;;6.80;4.23;;;16.50;99.90;;;;;;10040901;29;20684;-82
2022/10/25 15:08:48;;;;;;;5.83;3.87;;;16.40;99.90;;;;;;10040731;29;20257;-82
2022/10/25 15:13:56;;;;;;;3.80;2.10;;;16.20;99.90;;;;;;10057401;29;20615;-83
2022/10/25 15:19:08;;;;;;;4.57;2.63;;;16.60;99.90;;;;;;10025981;29;20269;-82
2022/10/25 15:24:16;;;;;;;5.40;2.70;;;16.30;99.90;;;;;;10040367;29;20687;-82
2022/10/25 15:29:40;;;;;;;5.63;2.63;;;16.30;99.90;;;;;;10039463;29;20735;-82
2022/10/25 15:34:46;;;;;;;4.93;3.10;;;15.50;99.90;;;;;;10056138;29;20261;-82
2022/10/25 15:39:51;;;;;;;8.20;4.97;;;14.90;99.90;;;;;;10056525;29;20261;-83
2022/10/25 15:44:54;;;;;;;6.57;5.27;;;14.20;99.90;;;;;;10055129;29;20676;-82
2022/10/25 15:49:57;;;;;;;12.33;6.27;;;15.10;99.90;;;;;;10054508;29;20726;-82
2022/10/25 15:55:00;;;;;;;14.07;6.37;;;15.20;99.90;;;;;;10038620;29;20684;-82
2022/10/25 16:00:02;;;;;;;9.93;5.97;;;15.30;99.90;;;;;;10024167;29;20261;-81
2022/10/25 16:05:29;;;;;;;10.67;7.43;;;15.20;99.90;;;;;;10059577;29;20241;-81
2022/10/25 16:10:32;;;;;;;12.37;6.80;;;15.00;99.90;;;;;;10035831;29;20300;-81
2022/10/25 16:15:34;;;;;;;12.50;8.17;;;15.30;99.90;;;;;;10025832;29;20759;-81
2022/10/25 16:20:37;;;;;;;11.93;7.77;;;14.00;99.90;;;;;;10035056;29;20245;-83
2022/10/25 16:25:40;;;;;;;16.57;12.53;;;13.70;99.90;;;;;;10053912;29;20253;-83
2022/10/25 16:30:44;;;;;;;24.30;15.53;;;13.50;99.90;;;;;;10038162;29;20249;-83
2022/10/25 16:35:46;;;;;;;33.60;19.43;;;13.30;99.90;;;;;;10036121;29;20297;-84
2022/10/25 16:40:50;;;;;;;31.10;18.30;;;13.20;99.90;;;;;;10053555;29;20247;-83
2022/10/25 16:45:52;;;;;;;26.37;15.33;;;13.00;99.90;;;;;;10054770;29;20241;-84
2022/10/25 16:50:54;;;;;;;24.00;14.93;;;13.00;99.90;;;;;;10054550;29;20237;-83
2022/10/25 16:55:58;;;;;;;24.23;14.60;;;13.10;99.90;;;;;;10035222;29;20265;-82
2022/10/25 17:01:00;;;;;;;23.07;12.83;;;13.10;99.90;;;;;;10053097;29;20261;-83
2022/10/25 17:06:04;;;;;;;22.93;13.53;;;13.10;99.90;;;;;;10052993;29;20272;-83
2022/10/25 17:11:27;;;;;;;27.90;16.67;;;13.20;99.90;;;;;;10062118;29;20245;-82
2022/10/25 17:16:29;;;;;;;34.03;23.20;;;13.10;99.90;;;;;;10054187;29;21087;-82
2022/10/25 17:21:34;;;;;;;41.17;23.77;;;13.00;99.90;;;;;;10052867;29;20286;-83
2022/10/25 17:26:37;;;;;;;39.87;24.23;;;13.00;99.90;;;;;;10053060;29;20665;-82
2022/10/25 17:31:40;;;;;;;31.27;20.40;;;12.90;99.90;;;;;;10032383;29;20240;-83
2022/10/25 17:36:42;;;;;;;22.23;14.83;;;12.80;99.90;;;;;;10051764;29;20635;-87
2022/10/25 17:41:45;;;;;;;29.70;17.87;;;13.00;99.90;;;;;;10047002;29;20731;-82
2022/10/25 17:46:47;;;;;;;20.70;13.30;;;13.10;99.90;;;;;;10047574;29;20288;-83
2022/10/25 17:51:50;;;;;;;32.20;18.20;;;13.10;99.90;;;;;;10050506;29;20293;-83
2022/10/25 17:56:57;;;;;;;35.77;21.10;;;13.00;99.90;;;;;;10034502;29;20733;-83
2022/10/25 18:01:59;;;;;;;34.13;21.60;;;12.70;99.90;;;;;;10052531;29;20249;-83
2022/10/25 18:07:02;;;;;;;33.63;20.73;;;12.70;99.90;;;;;;10035546;29;20320;-85
2022/10/25 18:12:08;;;;;;;31.63;20.20;;;12.70;99.90;;;;;;10051078;29;20248;-84
2022/10/25 18:17:10;;;;;;;32.53;20.10;;;12.70;99.90;;;;;;10052563;29;20241;-83
2022/10/25 18:22:13;;;;;;;37.33;21.10;;;12.50;99.90;;;;;;10055876;29;20236;-82
2022/10/25 18:27:15;;;;;;;26.73;18.63;;;12.50;99.90;;;;;;10025718;29;20316;-83
2022/10/25 18:32:18;;;;;;;27.10;17.87;;;12.40;99.90;;;;;;10058247;29;20240;-82
2022/10/25 18:37:22;;;;;;;23.77;15.00;;;12.50;99.90;;;;;;10057437;29;20653;-84
2022/10/25 18:42:24;;;;;;;22.67;13.53;;;13.60;99.90;;;;;;10058351;29;20301;-83
2022/10/25 18:47:27;;;;;;;21.50;13.83;;;13.80;99.90;;;;;;10058224;29;20671;-83
2022/10/25 18:52:29;;;;;;;16.43;12.87;;;13.50;99.90;;;;;;10057873;29;20289;-82
2022/10/25 18:57:32;;;;;;;18.00;11.30;;;13.40;99.90;;;;;;10027153;29;20277;-83
2022/10/25 19:02:35;;;;;;;14.63;10.67;;;13.60;99.90;;;;;;10041408;29;20269;-82
2022/10/25 19:07:39;;;;;;;19.90;10.63;;;14.20;99.90;;;;;;10054309;29;20246;-83
2022/10/25 19:12:42;;;;;;;18.20;11.40;;;13.80;99.90;;;;;;10056776;29;20590;-83
2022/10/25 19:17:49;;;;;;;13.60;10.40;;;13.10;99.90;;;;;;10058014;29;20248;-83
2022/10/25 19:22:57;;;;;;;14.20;9.63;;;13.00;99.90;;;;;;10057691;29;20241;-83
2022/10/25 19:28:00;;;;;;;15.47;10.10;;;13.30;99.90;;;;;;10054522;29;20340;-83
2022/10/25 19:33:03;;;;;;;18.47;10.27;;;13.00;99.90;;;;;;10054174;29;20309;-83
2022/10/25 19:38:06;;;;;;;11.93;7.93;;;13.00;99.90;;;;;;10057437;29;20266;-83
2022/10/25 19:43:08;;;;;;;14.90;8.67;;;12.50;99.90;;;;;;10048438;29;20301;-86
2022/10/25 19:48:11;;;;;;;12.40;7.00;;;12.80;99.90;;;;;;10040848;29;20268;-84
2022/10/25 19:53:14;;;;;;;14.33;8.13;;;13.00;99.90;;;;;;10057119;29;20237;-83
2022/10/25 19:58:16;;;;;;;16.87;9.30;;;12.60;99.90;;;;;;10055992;29;20305;-82
2022/10/25 20:03:19;;;;;;;8.77;7.73;;;12.00;99.90;;;;;;10056126;29;20260;-82
2022/10/25 20:08:22;;;;;;;15.40;8.70;;;12.10;99.90;;;;;;10056010;29;20305;-82
2022/10/25 20:13:24;;;;;;;15.77;8.47;;;11.90;99.90;;;;;;10038905;29;20237;-82
2022/10/25 20:18:32;;;;;;;11.77;7.90;;;11.60;99.90;;;;;;10055808;29;20245;-82
2022/10/25 20:23:35;;;;;;;11.27;8.60;;;11.80;99.90;;;;;;10056035;29;20292;-82
2022/10/25 20:28:37;;;;;;;11.83;8.10;;;11.60;99.90;;;;;;10054799;29;20251;-82
2022/10/25 20:33:40;;;;;;;12.60;7.60;;;11.80;99.90;;;;;;10053265;29;20262;-83
2022/10/25 20:38:44;;;;;;;9.83;7.30;;;12.40;99.90;;;;;;10054622;29;20233;-82
2022/10/25 20:43:48;;;;;;;10.13;8.37;;;12.00;99.90;;;;;;10054402;29;20240;-82
2022/10/25 20:48:52;;;;;;;11.80;7.00;;;12.00;99.90;;;;;;10053119;29;20253;-83
2022/10/25 20:53:55;;;;;;;13.50;9.93;;;11.70;99.90;;;;;;10052141;29;20253;-83
2022/10/25 20:58:58;;;;;;;8.27;5.93;;;12.00;99.90;;;;;;10035747;29;20248;-83
2022/10/25 21:04:00;;;;;;;12.37;6.93;;;11.80;99.90;;;;;;10033727;29;20720;-83
2022/10/25 21:09:03;;;;;;;10.60;7.57;;;11.40;99.90;;;;;;10040450;29;20307;-83
2022/10/25 21:14:05;;;;;;;15.30;10.13;;;11.00;99.90;;;;;;10053750;29;20235;-83
2022/10/25 21:19:08;;;;;;;14.20;9.60;;;10.90;99.90;;;;;;10037502;29;20303;-83
2022/10/25 21:24:10;;;;;;;17.23;10.37;;;10.80;99.90;;;;;;10056823;29;20239;-84
2022/10/25 21:29:13;;;;;;;20.37;11.00;;;10.70;99.90;;;;;;10088703;29;20258;-83
2022/10/25 21:34:15;;;;;;;16.90;10.73;;;10.50;99.90;;;;;;10050339;29;20239;-84
2022/10/25 21:39:22;;;;;;;18.90;11.83;;;10.50;99.90;;;;;;10051194;29;20253;-83
2022/10/25 21:44:25;;;;;;;22.20;12.17;;;10.40;99.90;;;;;;10035152;29;20230;-83
2022/10/25 21:49:27;;;;;;;22.80;13.33;;;10.40;99.90;;;;;;10052794;29;20975;-83
2022/10/25 21:54:29;;;;;;;20.30;12.83;;;10.20;99.90;;;;;;10035826;29;20261;-82
2022/10/25 21:59:32;;;;;;;25.50;13.90;;;10.10;99.90;;;;;;10052546;29;20259;-82
2022/10/25 22:04:34;;;;;;;22.50;14.93;;;9.90;99.90;;;;;;10051524;29;20274;-83
2022/10/25 22:09:37;;;;;;;29.77;16.87;;;;;;;;;;10050927;29;20727;-82
2022/10/25 22:14:39;;;;;;;38.73;18.27;;;9.90;99.90;;;;;;10036545;29;20233;-82
2022/10/25 22:19:42;;;;;;;30.60;16.17;;;9.60;99.90;;;;;;10034404;29;20233;-83
2022/10/25 22:24:44;;;;;;;27.67;14.27;;;9.50;99.90;;;;;;10035690;29;20294;-83
2022/10/25 22:29:47;;;;;;;23.00;14.40;;;9.50;99.90;;;;;;10025109;29;20307;-83
2022/10/25 22:34:49;;;;;;;29.20;15.40;;;9.60;99.90;;;;;;10050736;29;20274;-83
2022/10/25 22:39:51;;;;;;;24.80;15.90;;;9.50;99.90;;;;;;10050463;29;20238;-83
2022/10/25 22:44:54;;;;;;;24.40;16.67;;;9.50;99.90;;;;;;10035251;29;20763;-82
2022/10/25 22:49:56;;;;;;;21.57;16.30;;;9.40;99.90;;;;;;10033799;29;20265;-83
2022/10/25 22:54:59;;;;;;;28.00;17.47;;;9.50;99.90;;;;;;10005534;29;20677;-83
2022/10/25 23:00:01;;;;;;;28.43;16.73;;;;;;;;;;10035014;29;20245;-83
2022/10/25 23:05:04;;;;;;;23.93;15.57;;;9.20;99.90;;;;;;10035053;29;20676;-83
2022/10/25 23:10:07;;;;;;;24.23;16.20;;;8.90;99.90;;;;;;10057972;29;20253;-83
2022/10/25 23:15:10;;;;;;;25.43;14.53;;;8.80;99.90;;;;;;10041268;29;20238;-82
2022/10/25 23:20:12;;;;;;;22.07;14.00;;;8.70;99.90;;;;;;10042242;29;20294;-82
2022/10/25 23:25:15;;;;;;;18.00;12.80;;;8.30;99.90;;;;;;10040050;29;20237;-83
2022/10/25 23:30:17;;;;;;;20.10;12.63;;;8.10;99.90;;;;;;10056333;29;20282;-85
2022/10/25 23:35:19;;;;;;;19.97;12.10;;;7.90;99.90;;;;;;10040717;29;20298;-82
2022/10/25 23:40:22;;;;;;;21.30;12.57;;;7.70;99.90;;;;;;10025895;29;20612;-82
2022/10/25 23:45:25;;;;;;;22.07;12.33;;;7.50;99.90;;;;;;10056118;29;20241;-81
2022/10/25 23:50:30;;;;;;;17.70;10.77;;;7.40;99.90;;;;;;10056405;29;20821;-81
2022/10/25 23:55:34;;;;;;;24.53;13.27;;;7.30;99.90;;;;;;10056129;29;20811;-81
